Time;durP1;ratioP1;P1;durP2;ratioP2;P2;SDS_P1;SDS_P2;PMS_P1;PMS_P2;Temp;Humidity;BMP_temperature;BMP_pressure;BME280_temperature;BME280_humidity;BME280_pressure;Samples;Min_cycle;Max_cycle;Signal;HPM_P1;HPM_P2
2022/05/21 00:00:24;;;;;;;15.10;6.20;;;19.20;53.30;;;;;;5056590;28;46434;-62
2022/05/21 00:02:50;;;;;;;14.23;5.70;;;19.20;53.10;;;;;;5052823;28;46931;-62
2022/05/21 00:05:19;;;;;;;11.63;5.37;;;19.10;53.10;;;;;;5057503;28;47877;-61
2022/05/21 00:07:45;;;;;;;11.10;5.50;;;19.10;53.60;;;;;;5052376;28;46494;-61
2022/05/21 00:10:13;;;;;;;9.20;5.20;;;19.00;54.10;;;;;;5052308;28;46353;-61
2022/05/21 00:12:39;;;;;;;10.90;5.37;;;18.90;54.60;;;;;;5053178;28;46405;-61
2022/05/21 00:15:05;;;;;;;11.33;5.40;;;18.80;55.00;;;;;;5052298;28;48100;-61
2022/05/21 00:17:31;;;;;;;15.80;5.33;;;18.80;55.00;;;;;;5054779;28;46433;-61
2022/05/21 00:19:56;;;;;;;13.53;5.80;;;18.70;56.60;;;;;;5052834;28;46509;-61
2022/05/21 00:22:22;;;;;;;8.10;4.80;;;18.60;55.00;;;;;;5052279;28;46417;-61
2022/05/21 00:24:48;;;;;;;9.90;5.60;;;18.60;55.40;;;;;;5052914;28;46334;-61
2022/05/21 00:27:13;;;;;;;13.27;5.67;;;18.60;56.20;;;;;;5050528;28;45836;-61
2022/05/21 00:29:39;;;;;;;9.00;4.93;;;18.60;55.70;;;;;;5052193;28;46354;-62
2022/05/21 00:32:05;;;;;;;18.13;5.40;;;18.70;55.20;;;;;;5052493;28;46706;-61
2022/05/21 00:34:31;;;;;;;11.93;5.40;;;18.70;54.70;;;;;;5047863;28;49046;-61
2022/05/21 00:36:57;;;;;;;8.87;5.40;;;18.70;54.70;;;;;;5052955;28;46317;-61
2022/05/21 00:39:22;;;;;;;11.73;5.30;;;18.80;54.60;;;;;;5046734;28;46614;-61
2022/05/21 00:41:48;;;;;;;14.83;5.50;;;18.70;54.50;;;;;;5050074;28;45880;-61
2022/05/21 00:44:14;;;;;;;9.43;4.87;;;18.70;54.70;;;;;;5050710;28;47050;-61
2022/05/21 00:46:42;;;;;;;14.97;5.73;;;18.60;55.30;;;;;;5058494;28;46290;-61
2022/05/21 00:49:20;;;;;;;7.83;5.30;;;18.60;55.60;;;;;;5052336;28;46371;-61
2022/05/21 00:52:10;;;;;;;11.13;5.43;;;18.50;55.60;;;;;;5057149;28;46433;-61
2022/05/21 00:54:46;;;;;;;10.03;6.00;;;18.50;56.60;;;;;;5051951;28;46325;-61
2022/05/21 00:57:32;;;;;;;9.80;4.97;;;18.50;56.60;;;;;;5056308;28;46412;-61
2022/05/21 01:00:21;;;;;;;9.77;6.00;;;18.40;57.70;;;;;;5065064;28;46556;-61
2022/05/21 01:02:55;;;;;;;13.40;5.80;;;18.30;58.30;;;;;;5053742;28;45779;-61
2022/05/21 01:05:24;;;;;;;10.53;6.50;;;18.30;58.10;;;;;;5051044;28;47024;-60
2022/05/21 01:07:56;;;;;;;10.80;6.30;;;18.30;57.90;;;;;;5051688;28;46366;-61
2022/05/21 01:10:27;;;;;;;18.13;6.90;;;18.30;58.90;;;;;;5051582;28;46267;-61
2022/05/21 01:12:54;;;;;;;10.70;6.67;;;18.30;58.80;;;;;;5061616;28;46627;-61
2022/05/21 01:15:27;;;;;;;13.53;7.47;;;18.40;58.80;;;;;;5058566;28;46462;-61
2022/05/21 01:17:53;;;;;;;19.87;9.20;;;18.40;59.40;;;;;;5051745;28;46594;-60
2022/05/21 01:20:22;;;;;;;14.43;9.20;;;18.40;59.40;;;;;;5049052;28;45853;-61
2022/05/21 01:22:52;;;;;;;16.20;7.40;;;18.40;59.40;;;;;;5049964;28;46303;-62
2022/05/21 01:25:24;;;;;;;12.20;8.23;;;18.40;59.40;;;;;;5048398;28;48225;-61
2022/05/21 01:27:51;;;;;;;12.90;8.80;;;18.50;59.50;;;;;;5050209;28;46210;-61
2022/05/21 01:30:20;;;;;;;17.73;9.30;;;18.50;59.50;;;;;;5052975;28;46709;-61
2022/05/21 01:32:47;;;;;;;12.90;8.10;;;18.50;59.50;;;;;;5046630;28;46318;-61
2022/05/21 01:35:13;;;;;;;12.87;7.87;;;18.50;59.50;;;;;;5052867;28;47963;-62
2022/05/21 01:37:41;;;;;;;12.37;7.50;;;18.50;60.00;;;;;;5048164;28;46351;-62
2022/05/21 01:40:07;;;;;;;13.57;7.67;;;18.50;61.40;;;;;;5048775;28;46335;-62
2022/05/21 01:42:34;;;;;;;11.77;7.37;;;18.40;61.60;;;;;;5051537;28;46335;-61
2022/05/21 01:45:00;;;;;;;14.00;7.43;;;18.40;61.90;;;;;;5045147;28;46757;-62
2022/05/21 01:47:26;;;;;;;10.30;7.20;;;18.40;62.00;;;;;;5054273;28;46446;-62
2022/05/21 01:49:52;;;;;;;14.10;6.23;;;18.40;62.00;;;;;;5046083;28;46386;-62
2022/05/21 01:52:18;;;;;;;14.53;7.40;;;18.40;62.00;;;;;;5051283;28;46776;-61
2022/05/21 01:54:43;;;;;;;12.67;7.33;;;18.30;62.40;;;;;;5050447;28;47169;-61
2022/05/21 01:57:09;;;;;;;11.67;6.83;;;18.30;62.90;;;;;;5051073;28;46487;-61
2022/05/21 01:59:36;;;;;;;13.83;7.00;;;18.30;62.80;;;;;;5053176;28;46386;-61
2022/05/21 02:02:02;;;;;;;11.90;6.67;;;18.30;62.70;;;;;;5051234;28;46445;-61
2022/05/21 02:04:28;;;;;;;10.40;6.47;;;18.20;62.90;;;;;;5057051;28;46428;-61
2022/05/21 02:06:54;;;;;;;13.90;6.50;;;18.20;62.90;;;;;;5048566;28;46586;-61
2022/05/21 02:09:19;;;;;;;17.20;7.70;;;18.10;62.80;;;;;;5048512;28;46356;-61
2022/05/21 02:11:45;;;;;;;12.30;6.90;;;18.10;62.70;;;;;;5052257;28;46560;-62
2022/05/21 02:14:11;;;;;;;12.60;6.77;;;18.10;62.90;;;;;;5059001;28;46629;-61
2022/05/21 02:16:37;;;;;;;11.63;6.80;;;18.10;63.00;;;;;;5055619;28;46321;-61
2022/05/21 02:19:05;;;;;;;17.47;7.30;;;18.00;63.10;;;;;;5046606;28;46398;-61
2022/05/21 02:21:32;;;;;;;13.57;7.77;;;18.00;63.30;;;;;;5055628;28;46587;-61
2022/05/21 02:23:58;;;;;;;12.33;6.60;;;17.90;63.70;;;;;;5050114;28;48041;-61
2022/05/21 02:26:24;;;;;;;14.10;6.57;;;17.80;64.00;;;;;;5050460;28;46748;-61
2022/05/21 02:28:50;;;;;;;12.40;7.00;;;17.70;64.20;;;;;;5051625;28;46427;-60
2022/05/21 02:31:16;;;;;;;8.90;6.73;;;17.70;64.50;;;;;;5048376;28;46443;-62
2022/05/21 02:33:43;;;;;;;12.03;6.60;;;17.70;64.60;;;;;;5053992;28;48982;-59
2022/05/21 02:36:09;;;;;;;11.63;6.73;;;17.60;64.60;;;;;;5049253;28;46453;-59
2022/05/21 02:41:19;;;;;;;11.83;6.90;;;17.60;64.70;;;;;;5049604;28;46354;-62
2022/05/21 02:43:46;;;;;;;14.10;7.57;;;17.50;64.70;;;;;;5049929;28;46971;-60
2022/05/21 02:46:13;;;;;;;13.40;6.60;;;17.50;64.90;;;;;;5048849;28;46422;-62
2022/05/21 02:48:39;;;;;;;16.90;7.10;;;17.40;64.80;;;;;;5050367;28;46377;-61
2022/05/21 02:51:05;;;;;;;18.90;6.63;;;17.40;64.80;;;;;;5048756;28;46385;-62
2022/05/21 02:53:31;;;;;;;10.93;6.57;;;17.40;65.20;;;;;;5049377;28;46717;-61
2022/05/21 02:56:05;;;;;;;11.33;6.37;;;17.30;65.20;;;;;;5049611;28;46289;-61
2022/05/21 02:58:31;;;;;;;10.03;6.80;;;17.20;65.70;;;;;;5048406;28;46481;-61
2022/05/21 03:00:57;;;;;;;10.10;6.30;;;17.20;65.90;;;;;;5051269;28;46575;-63
2022/05/21 03:03:22;;;;;;;8.40;6.60;;;17.10;66.10;;;;;;5049468;28;46338;-63
2022/05/21 03:05:48;;;;;;;12.63;7.27;;;17.10;66.00;;;;;;5048646;28;46591;-62
2022/05/21 03:10:58;;;;;;;10.40;6.83;;;17.00;66.00;;;;;;5049819;28;46329;-62
2022/05/21 03:13:23;;;;;;;11.20;7.03;;;16.90;66.40;;;;;;5042977;28;46378;-62
2022/05/21 03:15:50;;;;;;;11.53;6.97;;;16.80;66.70;;;;;;5049095;28;45858;-62
2022/05/21 03:18:16;;;;;;;14.47;7.10;;;16.70;67.10;;;;;;5051918;28;46467;-62
2022/05/21 03:20:42;;;;;;;11.30;7.00;;;16.70;67.50;;;;;;5056356;28;46496;-62
2022/05/21 03:23:09;;;;;;;10.37;6.53;;;16.60;67.70;;;;;;5049925;28;46565;-62
2022/05/21 03:25:36;;;;;;;13.17;7.27;;;16.50;68.20;;;;;;5054584;28;46543;-62
2022/05/21 03:28:02;;;;;;;8.20;6.63;;;16.50;68.50;;;;;;5051046;28;45897;-62
2022/05/21 03:30:30;;;;;;;12.93;7.33;;;16.40;68.60;;;;;;5049510;28;46369;-62
2022/05/21 03:32:56;;;;;;;14.57;7.07;;;16.30;68.90;;;;;;5050636;28;48163;-62
2022/05/21 03:35:23;;;;;;;10.33;7.10;;;16.20;69.20;;;;;;5047808;28;46471;-61
2022/05/21 03:37:51;;;;;;;13.33;7.53;;;16.10;69.30;;;;;;5052167;28;46428;-62
2022/05/21 03:40:20;;;;;;;13.53;6.93;;;16.10;69.40;;;;;;5048337;28;46408;-61
2022/05/21 03:42:45;;;;;;;9.77;6.43;;;16.10;69.40;;;;;;5049684;28;46545;-61
2022/05/21 03:45:12;;;;;;;10.83;7.23;;;16.10;69.30;;;;;;5050744;28;46204;-62
2022/05/21 03:47:41;;;;;;;10.90;7.57;;;16.10;69.10;;;;;;5060960;28;46483;-62
2022/05/21 03:50:08;;;;;;;9.30;7.10;;;16.10;69.10;;;;;;5050753;28;46517;-61
2022/05/21 03:52:33;;;;;;;10.17;6.77;;;16.10;69.00;;;;;;5052968;28;46206;-61
2022/05/21 03:54:59;;;;;;;9.60;6.27;;;16.20;68.60;;;;;;5050686;28;46355;-61
2022/05/21 03:57:25;;;;;;;12.40;7.00;;;16.50;67.90;;;;;;5054490;28;45841;-61
2022/05/21 03:59:51;;;;;;;12.03;6.60;;;16.60;67.30;;;;;;5049045;28;46468;-61
2022/05/21 04:02:17;;;;;;;11.63;7.00;;;16.70;66.70;;;;;;5049540;28;46365;-62
2022/05/21 04:04:43;;;;;;;16.07;6.90;;;16.70;66.60;;;;;;5052977;28;46450;-61
2022/05/21 04:07:08;;;;;;;11.50;6.67;;;16.70;66.60;;;;;;5047526;28;45847;-61
2022/05/21 04:09:34;;;;;;;15.53;6.87;;;16.80;66.60;;;;;;5054808;28;46449;-62
2022/05/21 04:11:59;;;;;;;14.80;7.27;;;16.70;66.40;;;;;;5048905;28;46353;-62
2022/05/21 04:14:27;;;;;;;15.37;7.30;;;16.70;66.80;;;;;;5051601;28;46246;-61
2022/05/21 04:17:01;;;;;;;12.33;7.77;;;16.70;66.70;;;;;;5051323;28;46377;-62
2022/05/21 04:19:28;;;;;;;10.40;7.10;;;16.80;66.90;;;;;;5051777;28;46505;-61
2022/05/21 04:21:54;;;;;;;13.40;6.53;;;16.70;67.00;;;;;;5055044;28;47296;-63
2022/05/21 04:24:20;;;;;;;14.77;6.90;;;16.70;67.10;;;;;;5047107;28;46435;-61
2022/05/21 04:26:46;;;;;;;10.10;6.07;;;16.70;67.30;;;;;;5054192;28;46405;-61
2022/05/21 04:29:12;;;;;;;15.17;6.47;;;16.70;67.30;;;;;;5057532;28;46373;-61
2022/05/21 04:31:38;;;;;;;14.67;6.47;;;16.70;67.10;;;;;;5054338;28;46489;-61
2022/05/21 04:34:05;;;;;;;10.73;6.00;;;16.80;67.10;;;;;;5054197;28;46362;-61
2022/05/21 04:36:31;;;;;;;8.03;5.77;;;16.80;66.90;;;;;;5049201;28;46417;-62
2022/05/21 04:38:58;;;;;;;10.17;6.17;;;16.90;66.90;;;;;;5056485;28;46306;-62
2022/05/21 04:41:25;;;;;;;11.20;5.50;;;17.00;66.70;;;;;;5048408;28;46459;-66
2022/05/21 04:43:51;;;;;;;8.43;5.20;;;17.10;66.50;;;;;;5055983;28;46484;-62
2022/05/21 04:46:18;;;;;;;10.47;5.40;;;17.10;66.40;;;;;;5052302;28;46489;-62
2022/05/21 04:48:44;;;;;;;10.13;5.20;;;17.10;66.60;;;;;;5053051;28;46291;-62
2022/05/21 04:51:10;;;;;;;9.70;5.43;;;17.10;66.40;;;;;;5055077;28;46538;-62
2022/05/21 04:53:36;;;;;;;9.27;4.73;;;17.40;65.70;;;;;;5048511;28;46636;-62
2022/05/21 04:56:03;;;;;;;9.53;4.00;;;18.70;64.40;;;;;;5055458;28;46393;-61
2022/05/21 04:58:29;;;;;;;9.67;4.17;;;20.00;61.80;;;;;;5049762;28;46377;-61
2022/05/21 05:00:55;;;;;;;6.20;3.70;;;21.10;58.40;;;;;;5051452;28;46363;-61
2022/05/21 05:03:20;;;;;;;6.83;3.60;;;21.70;56.10;;;;;;5049442;28;45816;-60
2022/05/21 05:05:47;;;;;;;6.10;3.30;;;21.90;53.90;;;;;;5049632;28;45793;-59
2022/05/21 05:08:15;;;;;;;8.20;3.40;;;22.30;50.90;;;;;;5049968;28;46333;-62
2022/05/21 05:10:45;;;;;;;6.67;2.80;;;22.50;49.90;;;;;;5050196;28;47025;-60
2022/05/21 05:13:12;;;;;;;5.70;3.53;;;23.00;48.20;;;;;;5049288;28;46480;-61
2022/05/21 05:15:37;;;;;;;5.63;3.07;;;23.40;46.60;;;;;;5051227;28;46461;-60
2022/05/21 05:18:09;;;;;;;6.93;2.90;;;23.90;44.20;;;;;;5050842;28;46472;-61
2022/05/21 05:20:36;;;;;;;9.70;3.07;;;24.30;42.50;;;;;;5051998;28;47137;-61
2022/05/21 05:23:03;;;;;;;5.90;2.97;;;24.20;42.10;;;;;;5050745;28;46832;-62
2022/05/21 05:25:28;;;;;;;5.37;2.80;;;24.70;38.90;;;;;;5045604;28;45879;-61
2022/05/21 05:27:54;;;;;;;5.97;2.87;;;25.00;38.70;;;;;;5052029;28;46692;-62
2022/05/21 05:30:21;;;;;;;5.93;2.80;;;25.10;35.90;;;;;;5051232;28;46426;-61
2022/05/21 05:32:47;;;;;;;4.70;2.43;;;25.00;35.00;;;;;;5051508;28;46338;-61
2022/05/21 05:35:13;;;;;;;4.53;2.60;;;25.50;33.70;;;;;;5052174;28;46403;-62
2022/05/21 05:37:39;;;;;;;4.80;2.87;;;25.80;31.90;;;;;;5048843;28;46437;-62
2022/05/21 05:40:07;;;;;;;4.50;2.57;;;26.00;31.90;;;;;;5048962;28;46488;-60
2022/05/21 05:42:37;;;;;;;5.43;2.47;;;26.00;29.70;;;;;;5051260;28;46665;-61
2022/05/21 05:45:04;;;;;;;5.10;2.57;;;26.10;29.10;;;;;;5045811;28;46289;-61
2022/05/21 05:47:31;;;;;;;4.20;2.57;;;25.80;29.30;;;;;;5052687;28;46366;-62
2022/05/21 05:49:57;;;;;;;5.23;3.00;;;26.20;29.00;;;;;;5050381;28;46707;-61
2022/05/21 05:52:23;;;;;;;6.03;2.67;;;26.70;27.40;;;;;;5053955;28;46405;-61
2022/05/21 05:54:49;;;;;;;4.20;2.60;;;27.10;27.20;;;;;;5051392;28;46575;-61
2022/05/21 05:57:15;;;;;;;4.30;1.93;;;27.50;26.50;;;;;;5047986;28;46440;-59
2022/05/21 05:59:50;;;;;;;7.60;2.20;;;27.80;25.80;;;;;;5052815;28;46326;-59
2022/05/21 06:05:02;;;;;;;6.50;2.20;;;26.60;26.30;;;;;;5049711;28;46531;-59
2022/05/21 06:07:27;;;;;;;4.50;2.10;;;25.20;28.90;;;;;;5052556;28;46321;-60
2022/05/21 06:10:00;;;;;;;4.50;2.50;;;24.30;31.60;;;;;;5048044;28;46362;-59
2022/05/21 06:12:26;;;;;;;4.30;1.87;;;23.60;34.00;;;;;;5051933;28;46498;-58
2022/05/21 06:14:53;;;;;;;3.20;1.90;;;22.90;34.40;;;;;;5052297;28;46384;-60
2022/05/21 06:17:19;;;;;;;3.70;2.03;;;22.30;36.10;;;;;;5049201;28;46399;-60
2022/05/21 06:19:45;;;;;;;5.50;2.10;;;21.90;35.80;;;;;;5049462;28;48415;-61
2022/05/21 06:22:10;;;;;;;4.13;2.00;;;21.40;37.10;;;;;;5048008;28;46381;-61
2022/05/21 06:24:36;;;;;;;6.03;2.37;;;21.00;37.70;;;;;;5048987;28;46431;-62
2022/05/21 06:27:03;;;;;;;5.67;2.70;;;20.90;37.90;;;;;;5050708;28;46461;-61
2022/05/21 06:29:28;;;;;;;4.40;2.43;;;20.80;37.90;;;;;;5043907;28;46540;-57
2022/05/21 06:31:54;;;;;;;6.43;2.30;;;20.70;37.80;;;;;;5051043;28;46437;-60
2022/05/21 06:34:20;;;;;;;4.43;1.97;;;20.60;37.20;;;;;;5050407;28;46760;-61
2022/05/21 06:36:45;;;;;;;3.33;2.20;;;20.30;37.60;;;;;;5051566;28;46990;-61
2022/05/21 06:39:11;;;;;;;5.97;2.37;;;20.20;38.10;;;;;;5048925;28;46315;-61
2022/05/21 06:41:37;;;;;;;5.90;2.47;;;20.10;38.80;;;;;;5044888;28;45819;-59
2022/05/21 06:44:03;;;;;;;13.20;2.10;;;20.20;39.40;;;;;;5054437;28;46395;-61
2022/05/21 06:46:28;;;;;;;5.63;1.90;;;20.30;39.00;;;;;;5044790;28;46273;-61
2022/05/21 06:48:54;;;;;;;8.00;2.40;;;20.70;38.00;;;;;;5048865;28;46334;-59
2022/05/21 06:51:20;;;;;;;10.07;2.57;;;20.60;37.40;;;;;;5052943;28;45828;-61
2022/05/21 06:53:45;;;;;;;3.63;1.70;;;20.30;36.90;;;;;;5058593;28;45866;-61
2022/05/21 06:56:13;;;;;;;3.30;1.90;;;20.30;36.60;;;;;;5047759;28;46474;-60
2022/05/21 06:58:39;;;;;;;11.50;2.33;;;20.30;36.60;;;;;;5055886;28;46473;-60
2022/05/21 07:01:05;;;;;;;8.30;2.30;;;20.20;36.50;;;;;;5052750;28;46283;-61
2022/05/21 07:03:31;;;;;;;5.90;2.20;;;20.30;36.70;;;;;;5047587;28;46478;-61
2022/05/21 07:08:41;;;;;;;5.20;2.93;;;20.00;36.30;;;;;;5051028;28;46425;-60
2022/05/21 07:11:07;;;;;;;3.40;2.07;;;20.10;36.60;;;;;;5050774;28;45842;-61
2022/05/21 07:13:32;;;;;;;4.43;2.40;;;20.20;37.00;;;;;;5052998;28;46384;-60
2022/05/21 07:15:59;;;;;;;3.73;2.40;;;20.30;37.20;;;;;;5044504;28;46320;-59
2022/05/21 07:18:27;;;;;;;4.40;2.43;;;20.30;37.30;;;;;;5054858;28;46301;-60
2022/05/21 07:20:53;;;;;;;5.90;2.70;;;20.40;36.70;;;;;;5050622;28;45832;-59
2022/05/21 07:23:20;;;;;;;4.67;2.80;;;20.30;37.00;;;;;;5058207;28;46461;-59
2022/05/21 07:25:49;;;;;;;4.40;2.73;;;20.60;37.60;;;;;;5054961;28;46358;-60
2022/05/21 07:28:16;;;;;;;10.83;2.53;;;20.60;37.20;;;;;;5051031;28;46376;-59
2022/05/21 07:30:44;;;;;;;10.27;2.10;;;20.50;36.80;;;;;;5056564;28;46410;-59
2022/05/21 07:33:18;;;;;;;6.43;2.60;;;20.50;36.70;;;;;;5049613;28;46414;-59
2022/05/21 07:35:44;;;;;;;8.67;3.30;;;20.50;37.60;;;;;;5052587;28;46657;-59
2022/05/21 07:38:13;;;;;;;4.67;2.37;;;20.70;37.20;;;;;;5053556;28;46404;-59
2022/05/21 07:40:40;;;;;;;6.83;2.30;;;20.90;37.10;;;;;;5053796;28;46385;-60
2022/05/21 07:43:18;;;;;;;4.70;2.70;;;21.20;36.50;;;;;;5053270;28;46495;-59
2022/05/21 07:45:45;;;;;;;6.70;2.60;;;21.20;36.60;;;;;;5053382;28;46762;-59
2022/05/21 07:48:13;;;;;;;8.50;2.90;;;21.20;36.40;;;;;;5052401;28;47347;-58
2022/05/21 07:50:40;;;;;;;4.97;2.63;;;21.20;36.50;;;;;;5051700;28;46432;-60
2022/05/21 07:53:11;;;;;;;5.50;2.33;;;21.20;36.40;;;;;;5052359;28;46485;-59
2022/05/21 07:55:37;;;;;;;4.13;2.50;;;21.30;36.00;;;;;;5052385;28;46369;-59
2022/05/21 07:58:02;;;;;;;4.00;2.30;;;21.20;35.80;;;;;;5052429;28;46291;-60
2022/05/21 08:00:28;;;;;;;3.80;2.20;;;21.20;36.50;;;;;;5050376;28;45857;-60
2022/05/21 08:02:53;;;;;;;4.87;2.97;;;21.40;35.50;;;;;;5054122;28;46295;-58
2022/05/21 08:05:19;;;;;;;4.83;2.40;;;21.60;35.50;;;;;;5048234;28;46322;-60
2022/05/21 08:07:50;;;;;;;5.63;2.43;;;22.00;36.00;;;;;;5051854;28;46988;-59
2022/05/21 08:10:16;;;;;;;5.33;2.30;;;22.20;35.00;;;;;;5048057;28;46541;-60
2022/05/21 08:12:42;;;;;;;8.53;2.70;;;22.20;34.70;;;;;;5049645;28;46446;-61
2022/05/21 08:15:08;;;;;;;6.70;2.73;;;22.00;34.80;;;;;;5055107;28;46512;-60
2022/05/21 08:17:34;;;;;;;5.20;2.50;;;22.00;34.90;;;;;;5060186;28;46269;-60
2022/05/21 08:19:59;;;;;;;5.90;2.40;;;22.00;34.90;;;;;;5052867;28;46400;-61
2022/05/21 08:27:55;;;;;;;5.90;2.07;;;22.40;33.90;;;;;;5054989;28;46361;-59
2022/05/21 08:30:20;;;;;;;4.97;2.37;;;22.20;33.80;;;;;;5054243;28;46502;-59
2022/05/21 08:32:46;;;;;;;9.37;2.03;;;22.00;33.20;;;;;;5051623;28;46953;-59
2022/05/21 08:35:12;;;;;;;5.13;2.37;;;22.20;33.10;;;;;;5055702;28;46353;-58
2022/05/21 08:37:37;;;;;;;4.20;1.50;;;22.40;33.20;;;;;;5050953;28;46188;-59
2022/05/21 08:40:04;;;;;;;4.10;1.60;;;22.70;32.80;;;;;;5051720;28;46431;-59
2022/05/21 08:42:39;;;;;;;4.50;1.80;;;22.60;31.70;;;;;;5053142;28;46366;-60
2022/05/21 08:45:23;;;;;;;3.40;1.90;;;22.60;31.30;;;;;;5049695;28;46420;-60
2022/05/21 08:48:07;;;;;;;4.20;2.00;;;22.30;31.20;;;;;;5051583;28;46357;-59
2022/05/21 08:50:34;;;;;;;5.50;2.17;;;22.20;31.30;;;;;;5050681;28;46441;-60
2022/05/21 08:53:09;;;;;;;4.40;1.83;;;22.20;32.00;;;;;;5055456;28;46413;-61
2022/05/21 08:55:39;;;;;;;5.30;2.20;;;22.20;31.80;;;;;;5056689;28;46452;-60
2022/05/21 08:58:21;;;;;;;3.40;1.40;;;22.20;31.40;;;;;;5046989;28;47439;-60
2022/05/21 09:00:48;;;;;;;3.80;1.47;;;22.40;30.40;;;;;;5052160;28;46461;-60
2022/05/21 09:03:20;;;;;;;3.00;1.50;;;22.40;29.60;;;;;;5047549;28;46347;-59
2022/05/21 09:06:11;;;;;;;7.33;1.47;;;22.10;29.60;;;;;;5049769;28;46671;-59
2022/05/21 09:08:51;;;;;;;5.23;1.37;;;22.10;29.80;;;;;;5052965;28;46520;-60
2022/05/21 09:11:46;;;;;;;3.20;1.40;;;22.00;30.10;;;;;;5052197;28;46753;-59
2022/05/21 09:14:29;;;;;;;3.50;1.40;;;22.10;29.90;;;;;;5038214;27;46503;-60
2022/05/21 09:16:55;;;;;;;3.27;1.20;;;22.20;29.60;;;;;;5071370;27;45980;-60
2022/05/21 09:19:52;;;;;;;3.03;1.10;;;22.40;29.30;;;;;;5051191;28;46293;-61
2022/05/21 09:22:20;;;;;;;2.70;1.37;;;22.50;28.50;;;;;;5050783;28;46346;-61
2022/05/21 09:24:57;;;;;;;4.30;1.50;;;22.40;28.60;;;;;;5053470;28;46331;-61
2022/05/21 09:27:39;;;;;;;3.17;1.37;;;22.50;28.70;;;;;;5055665;28;46782;-61
2022/05/21 09:30:20;;;;;;;4.93;1.50;;;22.30;28.00;;;;;;5046482;28;47008;-61
2022/05/21 09:32:52;;;;;;;3.67;1.57;;;22.30;28.00;;;;;;5051363;28;46591;-61
2022/05/21 09:35:23;;;;;;;2.40;1.20;;;22.40;27.40;;;;;;5056779;28;46395;-61
2022/05/21 09:37:49;;;;;;;3.63;1.37;;;22.60;27.20;;;;;;5048797;28;46516;-61
2022/05/21 09:40:36;;;;;;;2.90;1.13;;;22.70;26.80;;;;;;5051781;28;48110;-61
2022/05/21 09:46:31;;;;;;;10.77;1.27;;;22.60;26.40;;;;;;5049541;28;46409;-59
2022/05/21 09:49:24;;;;;;;2.57;1.10;;;22.60;25.90;;;;;;5051074;28;46373;-60
2022/05/21 09:52:14;;;;;;;2.57;1.00;;;22.50;26.10;;;;;;5052660;28;47210;-61
2022/05/21 09:54:43;;;;;;;14.43;1.10;;;22.30;24.10;;;;;;5048928;28;45925;-61
2022/05/21 09:57:24;;;;;;;3.23;1.00;;;22.40;24.20;;;;;;5047233;28;46378;-61
2022/05/21 10:00:14;;;;;;;2.50;1.20;;;22.20;23.80;;;;;;5050371;28;46739;-61
2022/05/21 10:02:51;;;;;;;2.30;1.20;;;22.20;24.00;;;;;;5048786;28;47048;-61
2022/05/21 10:05:29;;;;;;;2.27;1.20;;;22.20;24.00;;;;;;5053964;28;45751;-61
2022/05/21 10:11:10;;;;;;;3.53;1.40;;;22.20;24.10;;;;;;5050168;28;46548;-59
2022/05/21 10:13:47;;;;;;;5.90;1.50;;;22.30;24.10;;;;;;5050335;28;47266;-61
2022/05/21 10:16:33;;;;;;;3.30;1.43;;;22.30;24.40;;;;;;5051077;28;46623;-61
2022/05/21 10:19:36;;;;;;;3.03;1.40;;;22.30;25.30;;;;;;5048488;28;46405;-61
2022/05/21 10:22:30;;;;;;;6.57;1.60;;;22.20;24.70;;;;;;5027248;28;46351;-61
2022/05/21 10:25:04;;;;;;;3.70;1.20;;;22.40;24.90;;;;;;5047671;28;46337;-61
2022/05/21 10:27:42;;;;;;;2.60;1.10;;;22.30;24.80;;;;;;5047822;28;46461;-61
2022/05/21 10:30:27;;;;;;;3.17;1.10;;;22.20;25.10;;;;;;5049187;28;46414;-61
2022/05/21 10:33:19;;;;;;;2.73;1.13;;;22.30;25.10;;;;;;5047785;28;46390;-61
2022/05/21 10:36:15;;;;;;;4.00;1.63;;;22.50;24.60;;;;;;5048273;28;46315;-61
2022/05/21 10:38:50;;;;;;;9.37;1.60;;;22.40;24.20;;;;;;5045067;28;45892;-61
2022/05/21 10:41:49;;;;;;;2.70;1.60;;;22.60;24.40;;;;;;5046107;28;46066;-60
2022/05/21 10:44:45;;;;;;;2.23;1.07;;;22.80;24.40;;;;;;5045790;28;45824;-60
2022/05/21 10:47:19;;;;;;;2.80;1.50;;;23.00;25.60;;;;;;5058644;28;46394;-62
2022/05/21 10:50:15;;;;;;;5.03;1.20;;;23.00;25.40;;;;;;5053588;28;46373;-61
2022/05/21 10:52:54;;;;;;;7.13;1.40;;;23.20;25.70;;;;;;5053398;28;46534;-61
2022/05/21 10:55:26;;;;;;;4.27;1.30;;;23.20;24.70;;;;;;5054754;28;46278;-60
2022/05/21 10:58:19;;;;;;;4.67;1.60;;;23.20;24.70;;;;;;5059302;28;46235;-61
2022/05/21 11:00:50;;;;;;;3.33;1.17;;;23.20;24.70;;;;;;5051905;28;46421;-59
2022/05/21 11:03:48;;;;;;;3.67;1.33;;;23.00;24.50;;;;;;5056523;28;46410;-61
2022/05/21 11:06:24;;;;;;;3.23;1.23;;;22.80;24.40;;;;;;5051569;28;46561;-60
2022/05/21 11:09:11;;;;;;;3.43;1.10;;;22.70;24.30;;;;;;5053947;28;46436;-61
2022/05/21 11:11:48;;;;;;;3.17;1.17;;;22.80;24.00;;;;;;5050913;28;46390;-62
2022/05/21 11:14:27;;;;;;;5.20;0.90;;;22.90;24.30;;;;;;5051158;28;46481;-60
2022/05/21 11:17:11;;;;;;;2.20;1.00;;;23.00;24.50;;;;;;5052972;28;46504;-61
2022/05/21 11:19:52;;;;;;;2.60;1.20;;;23.20;24.10;;;;;;5049836;28;46540;-60
2022/05/21 11:22:44;;;;;;;2.50;0.90;;;23.20;23.50;;;;;;5053152;28;46403;-61
2022/05/21 11:25:22;;;;;;;2.23;1.07;;;23.10;23.20;;;;;;5045301;28;46793;-60
2022/05/21 11:28:09;;;;;;;3.83;1.20;;;23.10;22.90;;;;;;5054539;28;45803;-62
2022/05/21 11:30:35;;;;;;;9.20;1.20;;;22.80;22.20;;;;;;5046983;28;48879;-61
2022/05/21 11:38:39;;;;;;;5.00;1.00;;;22.90;22.20;;;;;;5049367;28;46271;-61
2022/05/21 11:41:29;;;;;;;4.23;1.50;;;22.80;21.50;;;;;;5052304;28;46406;-61
2022/05/21 11:47:07;;;;;;;10.80;1.20;;;22.80;21.00;;;;;;5051511;28;46409;-60
2022/05/21 11:49:41;;;;;;;4.83;1.10;;;22.80;20.70;;;;;;5058379;28;46349;-61
2022/05/21 11:52:25;;;;;;;2.67;1.00;;;22.80;20.30;;;;;;5048370;28;46348;-60
2022/05/21 11:54:50;;;;;;;7.63;1.37;;;22.90;20.70;;;;;;5060116;28;46321;-61
2022/05/21 11:57:50;;;;;;;9.40;1.10;;;22.90;20.70;;;;;;5053973;28;45968;-61
2022/05/21 12:00:21;;;;;;;4.07;1.00;;;22.90;20.60;;;;;;5053524;28;46704;-61
2022/05/21 12:02:53;;;;;;;2.40;1.10;;;22.80;20.50;;;;;;5064633;28;48684;-61
2022/05/21 12:05:41;;;;;;;2.40;1.07;;;22.90;21.00;;;;;;5055370;28;46350;-60
2022/05/21 12:08:13;;;;;;;2.40;0.90;;;23.00;21.10;;;;;;5055897;28;46468;-62
2022/05/21 12:11:02;;;;;;;4.03;1.23;;;23.10;20.70;;;;;;5052553;28;46592;-61
2022/05/21 12:13:33;;;;;;;2.50;1.00;;;23.00;20.40;;;;;;5049869;28;46416;-59
2022/05/21 12:16:20;;;;;;;2.70;0.90;;;23.10;20.60;;;;;;5055345;28;46389;-62
2022/05/21 12:18:54;;;;;;;2.97;1.33;;;23.10;20.80;;;;;;5049434;28;46465;-62
2022/05/21 12:23:58;;;;;;;3.40;1.10;;;23.20;21.20;;;;;;5047470;28;46480;-62
2022/05/21 12:26:29;;;;;;;3.27;1.27;;;23.40;21.00;;;;;;5056179;28;46357;-61
2022/05/21 12:29:23;;;;;;;2.70;1.07;;;23.50;20.90;;;;;;5048230;28;46591;-61
2022/05/21 12:31:54;;;;;;;2.37;1.00;;;23.50;19.70;;;;;;5054395;28;46536;-60
2022/05/21 12:34:21;;;;;;;4.20;1.07;;;23.50;19.80;;;;;;5051750;28;46431;-60
2022/05/21 12:37:16;;;;;;;3.20;1.10;;;23.50;20.00;;;;;;5050325;28;46428;-61
2022/05/21 12:40:12;;;;;;;5.10;0.97;;;23.60;20.00;;;;;;5050698;28;46565;-61
2022/05/21 12:42:46;;;;;;;2.20;0.97;;;23.70;19.90;;;;;;5054826;28;46395;-61
2022/05/21 12:45:31;;;;;;;6.90;1.10;;;23.80;18.90;;;;;;5050675;28;46980;-60
2022/05/21 12:48:23;;;;;;;2.00;0.97;;;23.80;19.30;;;;;;5052323;28;46400;-61
2022/05/21 12:50:56;;;;;;;2.60;1.20;;;23.70;19.70;;;;;;5052209;28;46671;-61
2022/05/21 12:53:45;;;;;;;2.53;1.10;;;23.60;19.90;;;;;;5051790;28;46433;-61
2022/05/21 12:56:27;;;;;;;2.30;0.90;;;23.60;19.70;;;;;;5048420;28;47293;-61
2022/05/21 12:59:19;;;;;;;3.30;1.20;;;23.70;19.70;;;;;;5049966;28;46438;-60
2022/05/21 13:01:54;;;;;;;4.27;1.20;;;23.90;19.50;;;;;;5052015;28;46540;-61
2022/05/21 13:04:31;;;;;;;2.53;1.00;;;24.20;20.10;;;;;;5051165;28;46579;-61
2022/05/21 13:07:03;;;;;;;2.07;0.90;;;24.20;18.90;;;;;;5049465;28;46451;-61
2022/05/21 13:09:30;;;;;;;2.10;1.07;;;24.20;18.90;;;;;;5045499;28;45776;-61
2022/05/21 13:11:56;;;;;;;3.30;1.30;;;24.10;18.00;;;;;;5051545;28;46382;-61
2022/05/21 13:14:33;;;;;;;4.27;1.20;;;24.00;18.20;;;;;;5044410;28;46323;-61
2022/05/21 13:16:59;;;;;;;4.37;1.37;;;24.00;18.20;;;;;;5052263;28;46299;-61
2022/05/21 13:19:33;;;;;;;2.00;1.00;;;24.20;18.90;;;;;;5056848;28;46598;-61
2022/05/21 13:22:37;;;;;;;2.40;1.20;;;24.30;18.60;;;;;;5052966;28;46354;-60
2022/05/21 13:25:10;;;;;;;3.27;1.27;;;24.50;18.60;;;;;;5047763;28;46513;-60
2022/05/21 13:27:48;;;;;;;5.40;1.00;;;24.60;18.60;;;;;;5052878;28;47000;-60
2022/05/21 13:30:18;;;;;;;2.67;1.30;;;24.50;18.40;;;;;;5050566;28;46529;-61
2022/05/21 13:32:45;;;;;;;3.60;1.20;;;24.50;18.60;;;;;;5055170;28;46372;-61
2022/05/21 13:35:25;;;;;;;2.30;1.10;;;24.60;18.80;;;;;;5047194;28;45872;-61
2022/05/21 13:37:52;;;;;;;2.90;1.10;;;24.60;19.00;;;;;;5053332;28;47217;-61